« Back
NWS Peachtree City, Ga » Text Product » CSG Terminal Aerodrome Forecast


Printer-friendly Version
Current Version              Previous Versions:   1  2  3  4  5  6  7  8  9  

Terminal Aerodrome Forecast

094
FTUS42 KFFC 220933 AAA
TAFCSG
TAF AMD
KCSG 220933Z 2210/2306 09005KT 5SM -DZ BR OVC005
     FM221600 09007KT 4SM -DZ BR OVC006
     FM222000 10007KT 6SM BR OVC012
     FM230000 09009KT 4SM -DZ BR OVC004=



USA.gov is the U.S. government's official web portal to all federal, state and local government web resources and services.